Black Canyon (237) Station Data

Red Flag Warning: No
Fire Weather Zone: 250
SDGE Region: North East
Lat/Lon: 33.099/-116.828

Observations

Time Wind Speed/Gust Temp(F) RH Fuel Moist Fuel Temp(F) Dewpt(F) Tmax(F) Tmin(F) Accum Precip 10-min Precip SL Press(mb)
6/22 4:50am 344 1 G 1 71° 39% - - 45° 76.1° 67.3° - - -
6/22 4:40am 16 1 G 2 70° 45% - - 47° 76.1° 67.3° - - -
6/22 4:30am 327 1 G 2 70° 50% - - 50° 76.1° 67.3° - - -
6/22 4:20am 155 1 G 3 71° 40% - - 46° 76.1° 67.3° - - -
6/22 4:10am 140 2 G 2 70° 43% - - 47° 76.1° 67.3° - - -
6/22 4:00am 133 1 G 2 71° 43% - - 47° 76.1° 67.3° - - -
6/22 3:50am 76 0 G 1 70° 48% - - 49° 76.1° 67.3° - - -
6/22 3:40am 339 1 G 2 70° 47% - - 48° 76.1° 67.3° - - -
6/22 3:30am 0 0 G 0 69° 49% - - 49° 76.1° 67.3° - - -
6/22 3:20am 166 1 G 3 68° 51% - - 49° 76.1° 67.3° - - -
6/22 3:10am 151 3 G 4 68° 51% - - 50° 76.1° 67.4° - - -
6/22 3:00am 117 1 G 3 69° 55% - - 52° 76.1° 68.9° - - -
6/22 2:50am 331 0 G 1 69° 55% - - 53° 76.1° 68.9° - - -
6/22 2:40am 345 1 G 2 69° 59% - - 55° 76.1° 69° - - -
6/22 2:30am 327 1 G 2 71° 51% - - 52° 76.1° 69.6° - - -
6/22 2:20am 357 0 G 1 70° 53% - - 52° 76.1° 69.6° - - -
6/22 2:10am 280 1 G 2 71° 49% - - 50° 76.1° 69.9° - - -
6/22 2:00am 157 1 G 2 71° 45% - - 48° 76.1° 70.5° - - -
6/22 1:50am 147 2 G 3 71° 44% - - 48° 76.1° 71.1° - - -
6/22 1:40am 149 2 G 4 72° 45% - - 49° 76.1° 71.1° - - -
6/22 1:30am 167 2 G 2 71° 45% - - 49° 76.1° 71.1° - - -
6/22 1:20am 165 2 G 3 72° 43% - - 49° 76.1° 71.6° - - -
6/22 1:10am 142 2 G 4 73° 41% - - 48° 76.1° 72.8° - - -
6/22 1:00am 341 0 G 2 74° 39% - - 47° 76.1° 73.4° - - -
6/22 12:50am 270 1 G 5 75° 39% - - 48° 76.1° 74.3° - - -
6/22 12:40am 165 2 G 3 75° 41% - - 49° 76.1° 74.3° - - -
6/22 12:30am 147 2 G 3 75° 40% - - 50° 76.1° 74.7° - - -
6/22 12:20am 147 2 G 4 76° 43% - - 51° 76.1° 74.7° - - -
6/22 12:10am 135 2 G 4 75° 43% - - 51° 75.7° 74.7° - - -
6/22 12:00am 352 1 G 3 75° 44% - - 52° 99.9° 73.7° - - -
6/21 11:50pm 349 0 G 2 75° 47% - - 53° 99.9° 73.7° - - -
6/21 11:40pm 313 0 G 2 75° 48% - - 54° 99.9° 73.7° - - -
6/21 11:30pm 111 0 G 1 75° 48% - - 54° 99.9° 73.7° - - -
6/21 11:20pm 96 0 G 1 75° 47% - - 54° 99.9° 73.7° - - -
6/21 11:10pm 153 0 G 2 74° 53% - - 56° 99.9° 73.7° - - -
6/21 11:00pm 33 0 G 1 74° 56% - - 57° 99.9° 73.7° - - -
6/21 10:50pm 357 0 G 1 74° 55% - - 57° 99.9° 73.7° - - -
6/21 10:40pm 284 0 G 1 74° 54% - - 57° 99.9° 73.9° - - -
6/21 10:30pm 229 0 G 1 75° 53% - - 56° 99.9° 74.2° - - -
6/21 10:20pm 300 1 G 1 75° 52% - - 56° 99.9° 75° - - -
6/21 10:10pm 307 0 G 1 76° 50% - - 56° 99.9° 75.4° - - -
6/21 10:00pm 0 0 G 0 76° 49% - - 56° 99.9° 75.7° - - -
6/21 9:50pm 163 1 G 2 77° 48% - - 56° 99.9° 76.6° - - -
6/21 9:40pm 184 1 G 2 78° 47% - - 56° 99.9° 77.3° - - -
6/21 9:30pm 148 1 G 3 79° 45% - - 56° 99.9° 77.3° - - -
6/21 9:20pm 137 2 G 3 79° 45% - - 56° 99.9° 77.3° - - -
6/21 9:10pm 136 2 G 3 79° 44% - - 55° 99.9° 77.3° - - -
6/21 9:00pm 133 2 G 4 79° 44% - - 56° 99.9° 77.3° - - -
6/21 8:50pm 134 3 G 3 79° 44% - - 56° 99.9° 77.3° - - -
6/21 8:40pm 144 2 G 3 80° 43% - - 56° 99.9° 77.3° - - -
6/21 8:30pm 139 2 G 3 81° 42% - - 56° 99.9° 77.3° - - -
6/21 8:20pm 140 1 G 1 81° 41% - - 56° 99.9° 77.3° - - -
6/21 8:10pm 135 0 G 1 82° 41% - - 55° 99.9° 77.3° - - -
6/21 8:00pm 161 1 G 2 82° 40% - - 55° 99.9° 77.3° - - -
6/21 7:50pm 165 2 G 3 83° 39% - - 55° 99.9° 77.3° - - -
6/21 7:40pm 148 3 G 4 83° 38% - - 55° 99.9° 77.3° - - -
6/21 7:30pm 154 3 G 4 83° 37% - - 55° 99.9° 77.3° - - -
6/21 7:20pm 169 4 G 6 84° 36% - - 54° 99.9° 77.3° - - -
6/21 7:10pm 169 4 G 7 85° 35% - - 54° 99.9° 77.3° - - -
6/21 7:00pm 174 5 G 7 86° 33% - - 53° 99.9° 77.3° - - -
6/21 6:50pm 186 4 G 6 87° 31% - - 53° 99.9° 77.3° - - -
6/21 6:40pm 237 2 G 5 88° 30% - - 53° 99.9° 77.3° - - -
6/21 6:30pm 293 2 G 4 89° 30% - - 53° 99.9° 77.3° - - -
6/21 6:20pm 267 2 G 4 89° 27% - - 50° 99.9° 77.3° - - -
6/21 6:10pm 221 3 G 5 89° 26% - - 50° 99.9° 77.3° - - -
6/21 6:00pm 200 4 G 7 89° 26% - - 50° 99.9° 77.3° - - -
6/21 5:50pm 223 2 G 6 91° 25% - - 51° 99.9° 77.3° - - -
6/21 5:40pm 241 3 G 10 91° 25% - - 51° 99.9° 77.3° - - -
6/21 5:30pm 257 3 G 6 93° 24% - - 50° 99.9° 77.3° - - -
6/21 5:20pm 212 4 G 8 93° 22% - - 48° 99.9° 77.3° - - -
6/21 5:10pm 215 3 G 6 94° 21% - - 47° 99.9° 77.3° - - -
6/21 5:00pm 230 3 G 7 94° 18% - - 44° 99.9° 77.3° - - -
6/21 4:50pm 242 4 G 6 93° 19% - - 45° 99.9° 77.3° - - -
6/21 4:40pm 262 4 G 7 92° 22% - - 47° 99.9° 77.3° - - -
6/21 4:30pm 238 5 G 8 92° 21% - - 47° 99.9° 77.3° - - -
6/21 4:20pm 219 6 G 10 92° 21% - - 46° 99.9° 77.3° - - -
6/21 4:10pm 213 5 G 9 93° 21% - - 47° 99.9° 77.3° - - -
6/21 4:00pm 219 5 G 9 93° 21% - - 48° 99.9° 77.3° - - -
6/21 3:50pm 245 6 G 9 92° 22% - - 48° 99.9° 77.3° - - -
6/21 3:40pm 246 5 G 9 93° 22% - - 49° 99.9° 77.3° - - -
6/21 3:30pm 249 6 G 9 93° 23% - - 50° 99.9° 77.3° - - -
6/21 3:20pm 263 5 G 9 95° 21% - - 49° 99.9° 77.3° - - -
6/21 3:10pm 244 4 G 9 95° 20% - - 47° 99.9° 77.3° - - -
6/21 3:00pm 268 5 G 10 95° 18% - - 45° 99.9° 77.3° - - -
6/21 2:50pm 267 6 G 11 95° 18% - - 44° 99.9° 77.3° - - -
6/21 2:40pm 255 5 G 9 96° 19% - - 46° 99.9° 77.3° - - -
6/21 2:30pm 239 6 G 11 96° 17% - - 44° 99.9° 77.3° - - -
6/21 2:20pm 239 6 G 9 96° 17% - - 44° 99.9° 77.3° - - -
6/21 2:10pm 239 6 G 11 97° 16% - - 43° 99.9° 77.3° - - -
6/21 2:00pm 241 5 G 10 98° 16% - - 44° 99.9° 77.3° - - -
6/21 1:50pm 268 5 G 10 98° 17% - - 45° 99.9° 77.3° - - -
6/21 1:40pm 283 5 G 11 98° 16% - - 44° 99.9° 77.3° - - -
6/21 1:30pm 238 5 G 10 99° 13% - - 40° 99.9° 77.3° - - -
6/21 1:20pm 225 4 G 10 99° 13% - - 38° 99.9° 77.3° - - -
6/21 1:10pm 252 4 G 11 98° 14% - - 41° 99.1° 77.3° - - -
6/21 1:00pm 295 3 G 8 96° 19% - - 46° 97.3° 77.3° - - -
6/21 12:50pm 275 4 G 7 96° 20% - - 48° 97.3° 77.3° - - -
6/21 12:40pm 252 4 G 7 96° 19% - - 47° 96.9° 77.3° - - -
6/21 12:30pm 303 3 G 6 95° 20% - - 48° 96° 77.3° - - -
6/21 12:20pm 283 3 G 7 95° 21% - - 48° 96° 77.3° - - -
6/21 12:10pm 295 4 G 7 96° 20% - - 48° 96° 77.3° - - -
6/21 12:00pm 299 4 G 7 95° 18% - - 46° 96° 77.3° - - -
6/21 11:50am 285 4 G 7 95° 19% - - 46° 95.5° 77.3° - - -
6/21 11:40am 278 4 G 6 95° 18% - - 44° 95.2° 77.3° - - -
6/21 11:30am 293 4 G 7 94° 20% - - 47° 94.8° 77.3° - - -
6/21 11:20am 280 3 G 6 94° 21% - - 48° 94.6° 77.3° - - -
6/21 11:10am 290 3 G 5 94° 21% - - 48° 94.6° 77.3° - - -
6/21 11:00am 279 3 G 5 92° 22% - - 48° 94° 77.3° - - -
6/21 10:50am 284 3 G 7 91° 23% - - 48° 94° 77.3° - - -
6/21 10:40am 281 3 G 6 92° 22% - - 48° 94° 77.3° - - -
6/21 10:30am 242 2 G 4 93° 20% - - 46° 94° 77.3° - - -
6/21 10:20am 259 2 G 4 92° 21% - - 46° 92.5° 77.3° - - -
6/21 10:10am 177 3 G 6 92° 20% - - 45° 91.9° 77.3° - - -
6/21 10:00am 226 3 G 5 91° 22% - - 47° 91.2° 77.3° - - -
6/21 9:50am 227 3 G 6 90° 23% - - 47° 91.2° 77.3° - - -
6/21 9:40am 192 3 G 5 90° 21% - - 45° 91.2° 77.3° - - -
6/21 9:30am 166 3 G 5 89° 22% - - 45° 89.6° 77.3° - - -
6/21 9:20am 161 2 G 4 89° 23% - - 46° 88.9° 77.3° - - -
6/21 9:10am 200 2 G 3 88° 24% - - 46° 88.3° 77.3° - - -
6/21 9:00am 192 2 G 3 87° 24% - - 46° 87.8° 77.3° - - -
6/21 8:50am 174 2 G 3 86° 25% - - 46° 86.2° 77.3° - - -
6/21 8:40am 171 2 G 3 85° 27% - - 47° 86° 77.3° - - -
6/21 8:30am 160 2 G 3 84° 29% - - 48° 84.5° 77.3° - - -
6/21 8:20am 171 2 G 3 84° 28% - - 47° 84.3° 77.3° - - -
6/21 8:10am 165 2 G 3 83° 27% - - 46° 84.3° 77.3° - - -
6/21 8:00am 166 2 G 2 84° 25% - - 45° 84.3° 77.3° - - -
6/21 7:50am 165 1 G 2 84° 24% - - 43° 84.2° 77.3° - - -
6/21 7:40am 167 1 G 1 83° 23% - - 41° 83.7° 77.3° - - -
6/21 7:30am 157 1 G 3 82° 23% - - 41° 83° 77.3° - - -
6/21 7:20am 147 1 G 3 82° 24% - - 41° 83° 77.3° - - -
6/21 7:10am 152 2 G 3 81° 24% - - 41° 83° 77.3° - - -
6/21 7:00am 252 0 G 3 81° 23% - - 40° 83° 77.3° - - -
6/21 6:50am 325 1 G 4 82° 22% - - 39° 83° 77.3° - - -
6/21 6:40am 151 1 G 2 82° 21% - - 38° 83° 77.3° - - -
6/21 6:30am 141 1 G 2 81° 22% - - 39° 83° 77.3° - - -
6/21 6:20am 132 1 G 2 79° 24% - - 39° 83° 77.3° - - -
6/21 6:10am 145 1 G 3 80° 24% - - 40° 83° 77.3° - - -
6/21 6:00am 144 2 G 4 79° 25% - - 40° 83° 77.3° - - -
6/21 5:50am 141 1 G 3 79° 25% - - 40° 83° 77.3° - - -
6/21 5:40am 137 2 G 4 78° 26% - - 41° 83° 77.3° - - -
6/21 5:30am 139 2 G 4 79° 27% - - 42° 83° 77.3° - - -
6/21 5:20am 133 2 G 4 78° 28% - - 43° 83° 77.3° - - -
6/21 5:10am 138 1 G 3 78° 29% - - 43° 83° 77.3° - - -
6/21 5:00am 145 2 G 4 78° 30% - - 44° 83° 77.3° - - -
6/21 4:50am 47 1 G 2 78° 30% - - 45° 83° 77.9° - - -
6/21 4:40am 5 2 G 3 80° 30% - - 46° 83° 78.2° - - -
6/21 4:30am 143 2 G 3 80° 30% - - 46° 83° 78.2° - - -
6/21 4:20am 197 1 G 2 80° 31% - - 46° 83° 78.2° - - -
6/21 4:10am 37 0 G 2 80° 30% - - 46° 83° 78.2° - - -
6/21 4:00am 136 0 G 1 80° 31% - - 46° 83° 78.2° - - -
6/21 3:50am 129 2 G 3 80° 31% - - 46° 83° 78.2° - - -
6/21 3:40am 126 2 G 3 79° 32% - - 47° 83° 78.2° - - -
6/21 3:30am 150 1 G 2 79° 32% - - 47° 83° 78.2° - - -
6/21 3:20am 128 1 G 3 79° 33% - - 47° 83° 78.2° - - -
6/21 3:10am 353 1 G 2 79° 33% - - 48° 83° 78.2° - - -
6/21 3:00am 13 1 G 2 79° 32% - - 47° 83° 78.2° - - -
6/21 2:50am 153 1 G 3 80° 32% - - 48° 83° 78.2° - - -
6/21 2:40am 145 2 G 4 80° 32% - - 48° 83° 78.2° - - -
6/21 2:30am 310 1 G 2 79° 34% - - 48° 83° 78.2° - - -
6/21 2:20am 181 1 G 2 80° 32% - - 48° 83° 78.2° - - -
6/21 2:10am 174 1 G 2 80° 33% - - 48° 83° 78.2° - - -
6/21 2:00am 230 0 G 1 80° 33% - - 48° 83° 78.2° - - -
6/21 1:50am 229 1 G 2 80° 33% - - 48° 83° 78.2° - - -
6/21 1:40am 183 1 G 2 79° 35% - - 49° 83° 78.2° - - -
6/21 1:30am 184 0 G 1 80° 34% - - 49° 83° 79.5° - - -
6/21 1:20am 335 1 G 4 80° 34% - - 49° 83° 79.9° - - -
6/21 1:10am 72 0 G 2 80° 34% - - 49° 83° 79.9° - - -
6/21 1:00am 237 1 G 2 80° 34% - - 49° 83° 79.9° - - -
6/21 12:50am 263 0 G 1 81° 34% - - 50° 83° 80.3° - - -
6/21 12:40am 8 1 G 2 82° 32% - - 50° 83° 80.6° - - -
6/21 12:30am 107 1 G 2 82° 33% - - 50° 82.7° 80.6° - - -
6/21 12:20am 154 0 G 1 82° 34% - - 51° 81.7° 80.6° - - -
6/21 12:10am 141 0 G 2 81° 35% - - 51° 81.6° 80.6° - - -
6/21 12:00am 56 1 G 3 80° 36% - - 51° 99.3° 74.8° - - -
6/20 11:50pm 181 2 G 3 81° 36% - - 51° 99.3° 74.8° - - -
6/20 11:40pm 167 2 G 4 81° 36% - - 51° 99.3° 74.8° - - -
6/20 11:30pm 174 2 G 3 80° 37% - - 52° 99.3° 74.8° - - -
6/20 11:20pm 160 2 G 3 80° 37% - - 52° 99.3° 74.8° - - -
6/20 11:10pm 146 1 G 3 80° 38% - - 52° 99.3° 74.8° - - -
6/20 11:00pm 218 0 G 2 81° 37% - - 52° 99.3° 74.8° - - -
6/20 10:50pm 341 1 G 2 82° 35% - - 52° 99.3° 74.8° - - -
6/20 10:40pm 135 1 G 5 81° 37% - - 52° 99.3° 74.8° - - -
6/20 10:30pm 217 1 G 2 81° 38% - - 53° 99.3° 74.8° - - -
6/20 10:20pm 136 2 G 4 81° 38% - - 53° 99.3° 74.8° - - -
6/20 10:10pm 191 1 G 3 81° 37% - - 52° 99.3° 74.8° - - -
6/20 10:00pm 135 1 G 2 82° 35% - - 52° 99.3° 74.8° - - -
6/20 9:50pm 100 1 G 2 82° 35% - - 52° 99.3° 74.8° - - -
6/20 9:40pm 138 1 G 2 82° 34% - - 51° 99.3° 74.8° - - -
6/20 9:30pm 140 2 G 3 83° 34% - - 51° 99.3° 74.8° - - -
6/20 9:20pm 170 0 G 2 83° 34% - - 51° 99.3° 74.8° - - -
6/20 9:10pm 56 1 G 4 83° 33% - - 51° 99.3° 74.8° - - -
6/20 9:00pm 79 2 G 4 85° 30% - - 51° 99.3° 74.8° - - -
6/20 8:50pm 79 5 G 5 86° 30% - - 51° 99.3° 74.8° - - -
6/20 8:40pm 110 2 G 4 86° 30% - - 51° 99.3° 74.8° - - -
6/20 8:30pm 108 2 G 3 86° 30% - - 51° 99.3° 74.8° - - -
6/20 8:20pm 106 3 G 5 85° 30% - - 51° 99.3° 74.8° - - -
6/20 8:10pm 131 4 G 5 85° 30% - - 50° 99.3° 74.8° - - -
6/20 8:00pm 142 3 G 4 85° 30% - - 50° 99.3° 74.8° - - -
6/20 7:50pm 144 3 G 4 86° 29% - - 50° 99.3° 74.8° - - -
6/20 7:40pm 151 3 G 4 87° 29% - - 50° 99.3° 74.8° - - -
6/20 7:30pm 172 3 G 4 87° 29% - - 51° 99.3° 74.8° - - -
6/20 7:20pm 189 2 G 3 88° 28% - - 51° 99.3° 74.8° - - -
6/20 7:10pm 192 2 G 4 89° 28% - - 51° 99.3° 74.8° - - -
6/20 7:00pm 211 2 G 4 90° 27% - - 51° 99.3° 74.8° - - -
6/20 6:50pm 263 2 G 3 91° 27% - - 52° 99.3° 74.8° - - -
6/20 6:40pm 277 3 G 5 91° 27% - - 52° 99.3° 74.8° - - -
6/20 6:30pm 283 3 G 5 91° 27% - - 52° 99.3° 74.8° - - -
6/20 6:20pm 272 3 G 5 92° 26% - - 53° 99.3° 74.8° - - -
6/20 6:10pm 288 3 G 6 92° 26% - - 52° 99.3° 74.8° - - -
6/20 6:00pm 291 2 G 6 93° 26% - - 52° 99.3° 74.8° - - -